Airfield :
LOGIN :

Register | Disclaimer

   EN    FR    IT 

 










Legend :    VFR   Marginal VFR   IFR   Intensive IFR   Very Intensive IFR
Visi :
Ceiling :
>= 8 km
>= 3000ft
5 to 8 km
1000 to 3000 ft
1500m to 5 km
500 to 1000 ft
800 to 1500m
200 to 500 ft
< 800m
< 200 ft
Symbols :   Thunderstorms  Fog  Heavy snow  Heavy precipitations  Wind > 20 kt
SIGMETs :     Misc.  Thunderstorms  Icing  Turbulence  Mountain Waves  Volcanic Ashes






- Airport Elevation : 257 ft
- IATA code : MAN


EGCC - Manchester

CURRENT METAR :
  • 200950Z AUTO VRB03KT 9999 SCT024 15/09 Q1023 NOSIG

EXPIRED METARs :
  • 200920Z AUTO VRB05KT 9999 FEW024 15/09 Q1023 NOSIG
  • 200850Z AUTO 07008KT 9999 SCT023 14/09 Q1023 NOSIG
  • 200820Z AUTO 06004KT 030V110 9999 FEW024 14/09 Q1023 NOSIG
  • 200750Z AUTO 06004KT 9999 SCT023 13/10 Q1023
  • 200720Z AUTO 08003KT 9999 NCD 11/09 Q1023 NOSIG

TAF TAF EGCC
Valid from the 20 at 06:00 until the 21 at 12:00 UTC


200453Z 2006/2112 05007KT 9999 FEW045
TEMPO 2021/2024 8000
TEMPO 2100/2109 3000 BR
ATIS : +44 161 499 2324



MET'MAP, your aeronautical weather chart ! - Copyright ORBIFLY December 2007 - Disclaimer

ORBIFLY MET'MAP TEAM :

Programming & Development : Alexandra Zaïnal
Concept & original design : Baudouin d'Aumeries
Assistance for programming : Marc-Olivier Méhu
Technical & hardware support : Manuel Goepfert

Contact : metmap@orbifly.com




SOURCES & CREDITS :

   NOAA